Time;durP1;ratioP1;P1;durP2;ratioP2;P2;SDS_P1;SDS_P2;PMS_P1;PMS_P2;Temp;Humidity;BMP_temperature;BMP_pressure;BME280_temperature;BME280_humidity;BME280_pressure;Samples;Min_cycle;Max_cycle;Signal;HPM_P1;HPM_P2
2023/08/28 00:00:02;;;;;;;7.28;4.10;;;;;;;19.19;84.08;92798.34;5054503;28;20148;-78
2023/08/28 00:02:29;;;;;;;8.05;3.60;;;;;;;19.25;83.97;92800.91;5048944;28;20049;-78
2023/08/28 00:04:57;;;;;;;4.82;3.20;;;;;;;19.28;84.11;92801.16;5058295;28;20390;-77
2023/08/28 00:07:24;;;;;;;4.80;3.30;;;;;;;19.25;84.93;92799.06;5050058;28;20057;-77
2023/08/28 00:09:50;;;;;;;6.35;3.50;;;;;;;19.22;84.99;92791.81;5057272;28;20148;-78
2023/08/28 00:12:17;;;;;;;5.68;3.45;;;;;;;19.18;85.99;92789.00;5053303;28;20053;-77
2023/08/28 00:14:44;;;;;;;5.45;3.20;;;;;;;19.17;85.27;92784.81;5048821;28;20045;-77
2023/08/28 00:17:10;;;;;;;6.18;3.83;;;;;;;19.16;85.80;92782.50;5047851;28;20053;-77
2023/08/28 00:19:37;;;;;;;5.22;3.35;;;;;;;19.13;85.41;92793.47;5057686;28;20070;-77
2023/08/28 00:22:06;;;;;;;4.68;3.25;;;;;;;19.06;85.47;92783.34;5050129;28;20048;-77
2023/08/28 00:24:33;;;;;;;7.13;3.88;;;;;;;18.98;86.07;92783.91;5052466;28;20083;-78
2023/08/28 00:26:59;;;;;;;4.97;3.33;;;;;;;18.90;86.20;92785.28;5050056;28;20044;-78
2023/08/28 00:29:26;;;;;;;5.82;3.85;;;;;;;18.87;86.72;92788.41;5047595;28;20045;-78
2023/08/28 00:31:53;;;;;;;6.28;3.40;;;;;;;18.83;86.99;92794.16;5054212;28;20496;-78
2023/08/28 00:34:20;;;;;;;5.95;3.47;;;;;;;18.80;87.75;92799.16;5048332;28;20049;-78
2023/08/28 00:36:46;;;;;;;6.63;3.90;;;;;;;18.74;87.19;92802.84;5050059;28;20049;-78
2023/08/28 00:39:14;;;;;;;7.28;4.20;;;;;;;18.72;87.78;92794.50;5057708;28;20094;-78
2023/08/28 00:41:41;;;;;;;7.00;3.88;;;;;;;18.72;87.39;92803.09;5050418;28;20041;-77
2023/08/28 00:44:08;;;;;;;5.72;3.50;;;;;;;18.67;88.27;92810.94;5055429;28;20089;-78
2023/08/28 00:46:34;;;;;;;5.68;3.63;;;;;;;18.70;87.96;92810.38;5052421;28;20469;-77
2023/08/28 00:49:01;;;;;;;5.20;3.75;;;;;;;18.61;88.87;92812.78;5054943;28;20095;-77
2023/08/28 00:51:29;;;;;;;5.30;3.83;;;;;;;18.57;88.37;92806.56;5058132;28;20094;-77
2023/08/28 00:53:55;;;;;;;5.50;3.42;;;;;;;18.52;88.61;92802.16;5047093;28;20045;-77
2023/08/28 00:56:24;;;;;;;6.18;4.05;;;;;;;18.42;89.17;92784.78;5055714;28;20048;-78
2023/08/28 00:58:51;;;;;;;7.15;3.92;;;;;;;18.44;89.62;92789.72;5055241;28;20517;-76
2023/08/28 01:01:17;;;;;;;5.47;3.45;;;;;;;18.36;89.25;92777.28;5050635;28;20393;-76
2023/08/28 01:03:44;;;;;;;5.57;3.15;;;;;;;18.45;89.24;92796.47;5051861;28;20064;-76
2023/08/28 01:06:19;;;;;;;5.43;3.78;;;;;;;18.42;89.38;92792.59;5052909;28;20049;-76
2023/08/28 01:08:55;;;;;;;6.90;3.50;;;;;;;18.37;89.32;92789.25;5050415;28;20098;-77
2023/08/28 01:11:31;;;;;;;6.32;3.90;;;;;;;18.36;89.07;92795.47;5051942;28;20087;-77
2023/08/28 01:14:06;;;;;;;7.03;3.55;;;;;;;18.06;90.27;92759.00;5051721;28;20620;-76
2023/08/28 01:16:36;;;;;;;8.95;3.78;;;;;;;18.23;91.04;92794.28;5061605;28;20048;-77
2023/08/28 01:19:05;;;;;;;6.88;3.97;;;;;;;18.12;91.72;92785.72;5052926;28;20087;-76
2023/08/28 01:21:32;;;;;;;5.65;3.83;;;;;;;18.15;91.72;92780.78;5050414;28;20056;-76
2023/08/28 01:24:01;;;;;;;7.70;4.10;;;;;;;18.12;92.23;92781.31;5063425;28;20467;-77
2023/08/28 01:26:30;;;;;;;7.03;4.57;;;;;;;18.13;92.33;92775.06;5049614;28;20045;-78
2023/08/28 01:28:56;;;;;;;6.57;3.90;;;;;;;18.10;92.30;92775.59;5050700;28;20452;-76
2023/08/28 01:31:24;;;;;;;6.13;3.35;;;;;;;18.07;93.25;92776.13;5052862;28;20041;-75
2023/08/28 01:33:53;;;;;;;4.65;3.40;;;;;;;18.03;93.24;92775.09;5050534;28;20049;-75
2023/08/28 01:36:26;;;;;;;8.48;4.13;;;;;;;18.07;92.93;92776.13;5053359;28;20079;-75
2023/08/28 01:38:59;;;;;;;7.00;4.28;;;;;;;18.12;92.74;92772.72;5052987;28;20049;-75
2023/08/28 01:41:26;;;;;;;7.45;4.13;;;;;;;18.14;92.52;92775.84;5050568;28;20044;-75
2023/08/28 01:44:00;;;;;;;6.00;4.03;;;;;;;17.93;92.75;92749.13;5054706;28;20123;-75
2023/08/28 01:46:28;;;;;;;5.10;3.78;;;;;;;18.08;92.39;92775.09;5051900;28;20045;-75
2023/08/28 01:48:55;;;;;;;5.82;4.10;;;;;;;18.01;nan;92769.38;5054035;28;20107;-75
2023/08/28 01:51:22;;;;;;;5.38;3.88;;;;;;;17.94;92.29;92776.66;5062741;28;20053;-77
2023/08/28 01:53:50;;;;;;;6.72;4.07;;;;;;;17.92;92.47;92768.38;5051951;28;20041;-76
2023/08/28 01:56:19;;;;;;;5.60;3.65;;;;;;;17.79;92.60;92767.13;5056247;28;20093;-76
2023/08/28 01:58:47;;;;;;;6.75;4.22;;;;;;;17.75;93.59;92769.47;5058007;28;20505;-77
2023/08/28 02:01:15;;;;;;;7.05;3.75;;;;;;;17.74;94.14;92767.91;5053150;28;20824;-77
2023/08/28 02:03:42;;;;;;;7.43;4.53;;;;;;;17.68;94.59;92768.97;5052145;28;20099;-76
2023/08/28 02:06:09;;;;;;;11.30;4.22;;;;;;;17.58;94.55;92752.38;5053085;28;20554;-76
2023/08/28 02:08:37;;;;;;;5.30;4.10;;;;;;;17.59;94.92;92756.53;5049437;28;20097;-77
2023/08/28 02:11:04;;;;;;;6.45;4.00;;;;;;;17.36;97.51;92744.91;5055500;28;20052;-77
2023/08/28 02:13:31;;;;;;;6.40;3.83;;;;;;;17.52;96.52;92765.63;5049983;28;20472;-78
2023/08/28 02:15:58;;;;;;;5.43;3.97;;;;;;;17.53;96.08;92773.16;5053235;28;20098;-78
2023/08/28 02:18:26;;;;;;;7.45;4.60;;;;;;;17.59;95.13;92763.56;5048970;28;20095;-78
2023/08/28 02:20:53;;;;;;;5.70;3.97;;;;;;;17.49;95.47;92754.75;5059095;28;20049;-78
2023/08/28 02:23:20;;;;;;;5.88;4.13;;;;;;;17.55;95.52;92757.31;5054660;28;20439;-78
2023/08/28 02:25:49;;;;;;;6.07;3.88;;;;;;;17.55;95.76;92765.13;5053544;28;20141;-77
2023/08/28 02:28:18;;;;;;;8.77;4.50;;;;;;;17.48;96.02;92760.19;5048258;28;20091;-77
2023/08/28 02:30:45;;;;;;;6.60;3.65;;;;;;;17.45;96.57;92756.31;5051632;28;20760;-77
2023/08/28 02:33:11;;;;;;;6.55;3.88;;;;;;;17.48;96.37;92755.78;5052962;28;20126;-76
2023/08/28 02:35:39;;;;;;;4.95;3.55;;;;;;;17.40;96.26;92739.97;5056765;28;20084;-77
2023/08/28 02:38:08;;;;;;;5.38;4.25;;;;;;;17.44;96.39;92749.56;5051366;28;20455;-77
2023/08/28 02:40:35;;;;;;;5.70;3.95;;;;;;;17.42;96.71;92756.84;5049349;28;20045;-77
2023/08/28 02:43:05;;;;;;;7.28;4.35;;;;;;;17.36;95.87;92747.50;5053926;28;20107;-77
2023/08/28 02:45:33;;;;;;;7.22;4.30;;;;;;;17.45;95.68;92753.69;5057070;28;20055;-77
2023/08/28 02:48:00;;;;;;;6.55;4.35;;;;;;;17.42;95.72;92743.88;5058986;28;20131;-76
2023/08/28 02:50:26;;;;;;;7.32;4.40;;;;;;;17.42;97.13;92748.25;5051448;28;20040;-76
2023/08/28 02:52:54;;;;;;;8.43;4.25;;;;;;;17.34;97.71;92745.16;5048130;28;20045;-76
2023/08/28 02:55:22;;;;;;;7.40;4.28;;;;;;;17.33;98.05;92742.84;5054337;28;20049;-77
2023/08/28 02:57:48;;;;;;;8.52;4.72;;;;;;;17.30;97.72;92751.13;5048794;28;20049;-76
2023/08/28 03:00:18;;;;;;;6.75;4.63;;;;;;;17.25;97.89;92743.38;5053251;28;20091;-77
2023/08/28 03:02:45;;;;;;;9.38;5.00;;;;;;;16.98;98.19;92703.66;5059525;28;20049;-77
2023/08/28 03:05:11;;;;;;;5.95;4.40;;;;;;;17.28;97.77;92745.44;5052197;28;20049;-77
2023/08/28 03:07:38;;;;;;;8.40;4.80;;;;;;;17.30;97.63;92745.94;5057639;28;20049;-77
2023/08/28 03:10:07;;;;;;;7.03;4.03;;;;;;;17.26;97.27;92747.53;5049840;28;20053;-77
2023/08/28 03:12:34;;;;;;;7.75;4.50;;;;;;;17.17;97.50;92736.91;5058875;28;20076;-77
2023/08/28 03:15:01;;;;;;;7.10;4.32;;;;;;;17.26;96.96;92752.72;5052076;28;20049;-77
2023/08/28 03:17:27;;;;;;;9.50;4.22;;;;;;;17.26;97.04;92752.72;5051020;28;20041;-77
2023/08/28 03:19:54;;;;;;;7.50;4.80;;;;;;;17.18;97.60;92752.19;5048025;28;20091;-77
2023/08/28 03:22:21;;;;;;;11.10;4.20;;;;;;;17.14;98.22;92753.78;5052193;28;20033;-75
2023/08/28 03:24:48;;;;;;;6.07;4.47;;;;;;;17.14;98.56;92745.19;5052307;28;20040;-78
2023/08/28 03:27:16;;;;;;;7.40;4.38;;;;;;;17.12;97.91;92757.66;5051006;28;20053;-78
2023/08/28 03:29:42;;;;;;;11.13;5.15;;;;;;;17.10;97.92;92755.31;5058675;28;20094;-77
2023/08/28 03:32:09;;;;;;;7.75;4.50;;;;;;;17.07;98.27;92759.22;5049363;28;20037;-76
2023/08/28 03:34:36;;;;;;;9.18;4.90;;;;;;;17.03;98.22;92747.81;5050042;28;20051;-76
2023/08/28 03:37:02;;;;;;;6.70;3.95;;;;;;;16.94;98.32;92739.75;5052364;28;20102;-75
2023/08/28 03:39:29;;;;;;;11.18;4.72;;;;;;;16.96;98.90;92747.25;5049333;28;20041;-75
2023/08/28 03:41:56;;;;;;;9.80;4.40;;;;;;;16.96;98.57;92747.25;5049346;28;20040;-75
2023/08/28 03:44:24;;;;;;;11.65;4.85;;;;;;;16.93;98.81;92745.19;5048753;28;20049;-76
2023/08/28 03:46:51;;;;;;;8.15;4.50;;;;;;;16.93;99.32;92747.78;5051959;28;20045;-75
2023/08/28 03:49:17;;;;;;;7.93;4.57;;;;;;;16.85;99.30;92740.53;5049717;28;20551;-75
2023/08/28 03:51:44;;;;;;;11.20;4.65;;;;;;;16.91;99.35;92748.06;5052739;28;20044;-75
2023/08/28 03:54:12;;;;;;;11.70;4.30;;;;;;;16.90;99.37;92746.47;5055261;28;20082;-75
2023/08/28 03:56:39;;;;;;;8.48;4.93;;;;;;;16.85;100.00;92737.94;5053270;28;20052;-75
2023/08/28 03:59:06;;;;;;;9.45;5.20;;;;;;;16.83;100.00;92743.38;5050281;28;20084;-75
2023/08/28 04:01:35;;;;;;;7.53;4.95;;;;;;;16.84;100.00;92739.75;5061222;28;20166;-75
2023/08/28 04:04:01;;;;;;;7.55;5.25;;;;;;;16.84;100.00;92737.13;5054165;28;20073;-75
2023/08/28 04:06:28;;;;;;;8.75;5.05;;;;;;;16.79;100.00;92731.94;5050856;28;20057;-75
2023/08/28 04:08:55;;;;;;;7.93;4.45;;;;;;;16.81;99.64;92741.03;5056620;28;20517;-75
2023/08/28 04:11:21;;;;;;;10.80;4.38;;;;;;;16.79;99.52;92743.13;5049609;28;20300;-75
2023/08/28 04:13:48;;;;;;;16.20;5.10;;;;;;;16.75;99.63;92749.84;5051458;28;22057;-75
2023/08/28 04:16:18;;;;;;;8.27;5.50;;;;;;;16.70;99.54;92735.09;5051583;28;20504;-75
2023/08/28 04:18:46;;;;;;;13.13;8.48;;;;;;;16.77;100.00;92747.78;5052831;28;20234;-75
2023/08/28 04:21:13;;;;;;;12.35;6.20;;;;;;;16.74;100.00;92739.72;5051721;28;20170;-75
2023/08/28 04:23:40;;;;;;;13.85;6.35;;;;;;;16.77;100.00;92734.03;5052846;28;20550;-74
2023/08/28 04:26:06;;;;;;;15.48;6.10;;;;;;;16.77;100.00;92740.00;5049215;28;20098;-75
2023/08/28 04:28:33;;;;;;;9.00;4.88;;;;;;;16.79;100.00;92739.72;5048329;28;20125;-75
2023/08/28 04:31:00;;;;;;;9.30;4.57;;;;;;;16.83;100.00;92738.19;5048059;28;20228;-74
2023/08/28 04:33:27;;;;;;;10.35;4.72;;;;;;;16.84;100.00;92739.75;5054801;28;20090;-75
2023/08/28 04:35:55;;;;;;;10.10;4.65;;;;;;;16.85;100.00;92740.53;5049756;28;20090;-75
2023/08/28 04:38:23;;;;;;;10.30;5.15;;;;;;;16.69;100.00;92712.00;5053597;28;20557;-75
2023/08/28 04:40:50;;;;;;;11.10;5.35;;;;;;;16.92;100.00;92754.00;5055272;28;20048;-75
2023/08/28 04:43:16;;;;;;;10.15;5.22;;;;;;;16.95;100.00;92751.66;5057681;28;20864;-75
2023/08/28 04:45:43;;;;;;;12.25;5.28;;;;;;;16.96;100.00;92753.22;5060122;28;20107;-76
2023/08/28 04:48:10;;;;;;;10.45;4.82;;;;;;;16.88;100.00;92745.19;5059472;28;20048;-76
2023/08/28 04:50:37;;;;;;;7.93;4.88;;;;;;;16.91;100.00;92750.66;5064723;28;20052;-75
2023/08/28 04:53:05;;;;;;;7.78;5.05;;;;;;;17.00;100.00;92769.06;5054385;28;20386;-75
2023/08/28 04:55:32;;;;;;;8.35;4.60;;;;;;;17.03;100.00;92762.59;5062372;28;20065;-74
2023/08/28 04:57:58;;;;;;;13.88;4.97;;;;;;;17.05;100.00;92760.53;5064253;28;20094;-74
2023/08/28 05:00:25;;;;;;;7.50;4.40;;;;;;;17.12;100.00;92757.66;5062241;28;20049;-75
2023/08/28 05:02:52;;;;;;;12.60;4.63;;;;;;;17.25;100.00;92751.94;5064137;28;20543;-75
2023/08/28 05:05:18;;;;;;;8.77;4.55;;;;;;;17.34;100.00;92752.16;5066391;28;20098;-75
2023/08/28 05:07:45;;;;;;;8.15;5.70;;;;;;;17.41;100.00;92752.66;5054511;28;20118;-76
2023/08/28 05:10:14;;;;;;;7.13;5.45;;;;;;;17.46;100.00;92749.31;5067318;28;20052;-76
2023/08/28 05:12:41;;;;;;;9.18;5.00;;;;;;;17.53;100.00;92754.22;5061831;28;20103;-75
2023/08/28 05:15:08;;;;;;;9.27;5.55;;;;;;;17.58;100.00;92739.38;5053845;28;20041;-76
2023/08/28 05:17:35;;;;;;;7.43;5.07;;;;;;;17.71;99.81;92739.88;5064412;28;20052;-76
2023/08/28 05:20:02;;;;;;;8.48;5.63;;;;;;;17.86;99.62;92750.19;5052539;28;20586;-76
2023/08/28 05:22:29;;;;;;;8.05;4.50;;;;;;;17.99;98.92;92742.88;5050743;28;20596;-76
2023/08/28 05:24:55;;;;;;;8.35;5.38;;;;;;;18.09;99.22;92744.69;5058266;28;20543;-76
2023/08/28 05:27:23;;;;;;;10.07;5.88;;;;;;;18.17;98.06;92751.91;5052543;28;20049;-76
2023/08/28 05:29:52;;;;;;;11.23;6.78;;;;;;;18.22;97.43;92744.09;5051295;28;20045;-76
2023/08/28 05:32:19;;;;;;;9.85;6.18;;;;;;;18.34;99.38;92735.97;5064028;28;20045;-75
2023/08/28 05:34:46;;;;;;;12.82;5.93;;;;;;;18.37;95.96;92726.84;5050720;28;20049;-76
2023/08/28 05:37:12;;;;;;;10.68;6.20;;;;;;;18.51;96.14;92732.22;5053787;28;20049;-76
2023/08/28 05:39:39;;;;;;;10.80;7.07;;;;;;;18.58;97.31;92721.50;5055768;28;20114;-76
2023/08/28 05:42:06;;;;;;;22.08;7.22;;;;;;;18.71;95.47;92736.50;5049983;28;20103;-75
2023/08/28 05:44:34;;;;;;;9.95;5.72;;;;;;;18.84;93.23;92732.47;5051373;28;20044;-76
2023/08/28 05:47:01;;;;;;;9.65;5.55;;;;;;;18.95;93.45;92728.78;5053330;28;20107;-76
2023/08/28 05:49:28;;;;;;;10.50;5.95;;;;;;;19.11;91.82;92728.66;5049319;28;20049;-76
2023/08/28 05:51:55;;;;;;;10.75;5.63;;;;;;;19.24;91.25;92724.63;5052084;28;20040;-76
2023/08/28 05:54:21;;;;;;;9.45;5.50;;;;;;;19.35;92.55;92717.50;5051758;28;20551;-76
2023/08/28 05:56:48;;;;;;;6.75;4.68;;;;;;;19.58;90.38;92734.16;5053596;28;20057;-76
2023/08/28 05:59:15;;;;;;;8.68;4.38;;;;;;;19.74;89.94;92734.78;5052430;28;20110;-76
2023/08/28 06:01:43;;;;;;;9.18;4.55;;;;;;;19.87;91.59;92725.50;5050614;28;20375;-76
2023/08/28 06:04:10;;;;;;;6.47;4.40;;;;;;;19.94;89.96;92727.00;5055589;28;20121;-75
2023/08/28 06:06:38;;;;;;;7.22;4.18;;;;;;;19.99;89.59;92732.94;5054355;28;20049;-75
2023/08/28 06:09:05;;;;;;;12.70;5.00;;;;;;;20.11;89.43;92742.97;5050772;28;20441;-75
2023/08/28 06:11:32;;;;;;;9.95;4.53;;;;;;;20.16;88.94;92742.13;5059226;28;20044;-75
2023/08/28 06:14:00;;;;;;;8.43;4.55;;;;;;;20.32;88.57;92739.31;5056744;28;20139;-76
2023/08/28 06:16:26;;;;;;;7.80;4.88;;;;;;;20.52;85.63;92741.66;5050735;28;20130;-76
2023/08/28 06:18:55;;;;;;;9.73;4.95;;;;;;;20.72;86.50;92744.22;5052451;28;20110;-76
2023/08/28 06:21:21;;;;;;;9.55;4.97;;;;;;;20.91;85.71;92755.44;5054208;28;20045;-76
2023/08/28 06:23:48;;;;;;;12.30;6.10;;;;;;;21.13;84.58;92756.66;5048585;28;20053;-76
2023/08/28 06:26:15;;;;;;;13.07;6.38;;;;;;;21.32;83.70;92754.00;5054193;28;20049;-76
2023/08/28 06:28:41;;;;;;;12.02;5.43;;;;;;;21.42;83.14;92754.91;5057616;28;20107;-75
2023/08/28 06:31:08;;;;;;;12.15;5.30;;;;;;;21.48;80.75;92748.50;5051514;28;20074;-75
2023/08/28 06:33:35;;;;;;;10.88;5.10;;;;;;;21.66;79.97;92752.09;5057075;28;20049;-76
2023/08/28 06:36:03;;;;;;;9.35;4.60;;;;;;;21.88;80.26;92754.06;5051345;28;20160;-76
2023/08/28 06:38:30;;;;;;;8.80;5.05;;;;;;;22.12;78.27;92753.06;5054192;28;20102;-76
2023/08/28 06:40:57;;;;;;;11.20;4.18;;;;;;;22.35;78.15;92747.13;5049226;28;20041;-76
2023/08/28 06:43:24;;;;;;;6.07;4.05;;;;;;;22.59;77.36;92756.56;5055904;28;20041;-76
2023/08/28 06:45:50;;;;;;;12.07;4.53;;;;;;;22.80;74.91;92755.03;5055249;28;20045;-76
2023/08/28 06:48:17;;;;;;;7.72;4.28;;;;;;;22.96;74.21;92755.44;5049109;28;20090;-76
2023/08/28 06:50:44;;;;;;;7.72;4.00;;;;;;;23.19;73.19;92758.06;5051928;28;20106;-76
2023/08/28 06:53:12;;;;;;;10.45;5.10;;;;;;;23.28;71.65;92744.25;5049975;28;20048;-76
2023/08/28 06:55:38;;;;;;;6.97;3.92;;;;;;;23.59;71.11;92759.19;5048993;28;20115;-75
2023/08/28 06:58:05;;;;;;;9.48;4.55;;;;;;;23.87;70.18;92757.16;5053314;28;20056;-76
2023/08/28 07:00:32;;;;;;;10.35;4.30;;;;;;;23.98;68.61;92755.00;5053528;28;20053;-75
2023/08/28 07:02:59;;;;;;;8.05;4.22;;;;;;;24.21;67.78;92762.03;5054650;28;20041;-76
2023/08/28 07:05:25;;;;;;;6.10;3.63;;;;;;;24.29;65.29;92756.00;5052268;28;20090;-76
2023/08/28 07:07:52;;;;;;;9.98;4.20;;;;;;;24.65;65.57;92760.22;5052986;28;20515;-76
2023/08/28 07:10:20;;;;;;;13.52;4.38;;;;;;;24.99;65.38;92762.41;5048923;28;20167;-76
2023/08/28 07:12:47;;;;;;;13.68;4.18;;;;;;;25.23;64.42;92769.78;5050280;28;20056;-76
2023/08/28 07:15:55;;;;;;;10.13;4.30;;;;;;;25.58;61.18;92766.28;5049678;28;20048;-76
2023/08/28 07:18:21;;;;;;;8.45;3.42;;;;;;;25.83;60.48;92766.50;5052395;28;20130;-76
2023/08/28 07:20:48;;;;;;;6.65;4.40;;;;;;;25.90;58.41;92769.41;5050556;28;20052;-75
2023/08/28 07:23:15;;;;;;;5.38;3.13;;;;;;;25.56;60.12;92744.81;5048576;28;20053;-75
2023/08/28 07:25:44;;;;;;;7.80;3.60;;;;;;;26.04;61.11;92765.78;5054102;28;20048;-76
2023/08/28 07:28:10;;;;;;;8.15;3.78;;;;;;;26.27;58.34;92776.84;5055420;28;20643;-75
2023/08/28 07:30:37;;;;;;;7.75;4.15;;;;;;;26.36;58.93;92769.66;5053690;28;20095;-75
2023/08/28 07:33:05;;;;;;;6.97;3.67;;;;;;;26.66;58.92;92779.38;5053966;28;20098;-75
2023/08/28 07:35:34;;;;;;;5.63;3.38;;;;;;;26.78;56.51;92768.88;5051665;28;20048;-76
2023/08/28 07:38:04;;;;;;;6.85;4.18;;;;;;;27.00;56.71;92771.53;5057366;28;20098;-76
2023/08/28 07:40:30;;;;;;;6.43;3.55;;;;;;;27.22;57.19;92770.41;5051073;28;20049;-76
2023/08/28 07:42:59;;;;;;;6.15;3.45;;;;;;;27.35;56.53;92777.25;5049425;28;20045;-76
2023/08/28 07:45:25;;;;;;;9.65;3.55;;;;;;;27.54;55.50;92777.81;5059312;28;20557;-76
2023/08/28 07:47:52;;;;;;;9.35;3.88;;;;;;;27.64;54.61;92774.00;5051802;28;20040;-76
2023/08/28 07:50:19;;;;;;;12.43;3.95;;;;;;;27.88;54.63;92774.06;5048114;28;20037;-76
2023/08/28 07:52:45;;;;;;;6.18;3.65;;;;;;;28.20;54.47;92776.13;5046787;28;20044;-76
2023/08/28 07:55:12;;;;;;;9.82;3.70;;;;;;;28.47;53.86;92773.88;5053940;28;20141;-75
2023/08/28 07:57:39;;;;;;;7.00;3.50;;;;;;;28.65;52.48;92782.34;5048692;28;20448;-76
2023/08/28 08:00:12;;;;;;;9.05;3.47;;;;;;;28.92;51.41;92787.22;5057581;28;20060;-76
2023/08/28 08:02:39;;;;;;;8.80;4.55;;;;;;;29.14;52.80;92787.81;5048299;28;20068;-73
2023/08/28 08:05:07;;;;;;;7.35;3.70;;;;;;;29.35;49.63;92784.97;5053683;28;20052;-74
2023/08/28 08:07:34;;;;;;;10.77;3.95;;;;;;;29.68;51.66;92783.94;5051060;28;20130;-74
2023/08/28 08:10:01;;;;;;;6.45;3.78;;;;;;;29.82;48.32;92775.56;5048717;28;20055;-74
2023/08/28 08:12:28;;;;;;;17.08;4.50;;;;;;;30.05;48.89;92776.81;5047684;28;20044;-74
2023/08/28 08:14:54;;;;;;;8.38;3.78;;;;;;;30.26;47.73;92777.31;5057784;28;20637;-74
2023/08/28 08:17:22;;;;;;;7.18;3.63;;;;;;;30.17;46.90;92783.94;5051491;28;20524;-74
2023/08/28 08:19:49;;;;;;;5.47;3.85;;;;;;;30.50;48.08;92782.75;5052903;28;20555;-73
2023/08/28 08:22:16;;;;;;;7.10;3.63;;;;;;;30.64;47.49;92780.38;5052271;28;20041;-74
2023/08/28 08:24:42;;;;;;;7.47;4.32;;;;;;;30.84;47.74;92777.00;5051282;28;20122;-74
2023/08/28 08:27:09;;;;;;;7.70;3.92;;;;;;;31.04;47.39;92762.63;5054565;28;20563;-74
2023/08/28 08:29:36;;;;;;;7.13;3.75;;;;;;;31.20;47.02;92767.06;5058820;28;20052;-74
2023/08/28 08:32:02;;;;;;;8.27;4.28;;;;;;;31.40;45.62;92780.31;5058325;28;20041;-74
2023/08/28 08:34:32;;;;;;;7.00;3.55;;;;;;;31.54;44.21;92763.88;5051512;28;20099;-74
2023/08/28 08:36:59;;;;;;;9.60;3.95;;;;;;;31.63;45.72;92761.75;5052822;28;20049;-74
2023/08/28 08:39:25;;;;;;;9.65;3.80;;;;;;;31.78;44.58;92768.06;5059552;28;20052;-75
2023/08/28 08:41:52;;;;;;;5.63;3.60;;;;;;;31.68;44.71;92761.47;5055956;28;20040;-74
2023/08/28 08:44:19;;;;;;;12.75;4.18;;;;;;;31.78;43.06;92762.75;5054546;28;20497;-75
2023/08/28 08:46:46;;;;;;;10.85;4.05;;;;;;;31.88;43.24;92764.06;5056769;28;20463;-75
2023/08/28 08:49:18;;;;;;;8.93;4.10;;;;;;;31.69;43.59;92751.59;5053995;28;20049;-75
2023/08/28 08:51:50;;;;;;;7.65;4.20;;;;;;;32.01;44.38;92748.69;5054630;28;20045;-74
2023/08/28 08:54:21;;;;;;;5.43;3.75;;;;;;;32.16;43.95;92744.34;5056350;28;20056;-75
2023/08/28 08:56:51;;;;;;;9.07;4.22;;;;;;;32.10;41.76;92745.78;5051098;28;20048;-75
2023/08/28 08:59:19;;;;;;;7.65;3.55;;;;;;;32.26;42.38;92748.31;5051095;28;20101;-75
2023/08/28 09:01:45;;;;;;;6.30;3.90;;;;;;;32.55;43.11;92738.06;5053824;28;20053;-75
2023/08/28 09:04:13;;;;;;;10.23;4.20;;;;;;;32.82;41.14;92737.22;5060854;28;20094;-75
2023/08/28 09:06:41;;;;;;;6.97;3.58;;;;;;;33.04;40.95;92720.41;5052221;28;20052;-75
2023/08/28 09:09:11;;;;;;;8.73;4.20;;;;;;;33.14;39.95;92726.19;5059904;28;20103;-75
2023/08/28 09:11:40;;;;;;;7.35;3.88;;;;;;;33.14;40.29;92718.22;5050284;28;20456;-75
2023/08/28 09:14:07;;;;;;;6.53;4.30;;;;;;;33.28;40.54;92715.66;5057493;28;20531;-75
2023/08/28 09:16:34;;;;;;;5.47;3.70;;;;;;;33.49;40.65;92709.00;5054129;28;20053;-75
2023/08/28 09:19:01;;;;;;;9.38;3.47;;;;;;;33.77;40.22;92710.41;5050113;28;20131;-75
2023/08/28 09:21:35;;;;;;;4.88;2.90;;;;;;;33.74;38.11;92697.84;5050921;28;20091;-74
2023/08/28 09:24:02;;;;;;;5.00;2.50;;;;;;;33.79;35.96;92710.03;5051812;28;20162;-75
2023/08/28 09:26:30;;;;;;;6.75;2.80;;;;;;;34.13;37.55;92704.56;5050289;28;20045;-75
2023/08/28 09:29:00;;;;;;;6.55;2.70;;;;;;;34.31;37.03;92698.56;5050115;28;20125;-75
2023/08/28 09:31:30;;;;;;;5.82;3.17;;;;;;;34.34;37.47;92695.91;5054517;28;20045;-75
2023/08/28 09:33:57;;;;;;;7.53;3.17;;;;;;;34.32;35.17;92697.41;5051581;28;20630;-75
2023/08/28 09:36:24;;;;;;;6.97;2.65;;;;;;;33.93;34.45;92680.06;5052880;28;20145;-77
2023/08/28 09:38:51;;;;;;;7.55;2.65;;;;;;;33.73;33.91;92680.31;5050402;28;20049;-77
2023/08/28 09:41:18;;;;;;;5.90;2.60;;;;;;;33.90;34.70;92668.25;5050004;28;20053;-76
2023/08/28 09:43:49;;;;;;;7.60;3.00;;;;;;;34.28;36.28;92668.06;5051005;28;20056;-76
2023/08/28 09:46:16;;;;;;;5.95;2.47;;;;;;;34.52;35.38;92668.53;5052353;28;20095;-76
2023/08/28 09:48:43;;;;;;;6.25;2.45;;;;;;;34.76;32.40;92671.72;5055958;28;20387;-76
2023/08/28 09:51:09;;;;;;;8.43;2.85;;;;;;;34.90;33.89;92670.97;5054818;28;20049;-76
2023/08/28 09:53:37;;;;;;;5.75;2.30;;;;;;;35.07;32.53;92668.72;5059913;28;20072;-77
2023/08/28 09:56:04;;;;;;;5.07;2.30;;;;;;;35.31;33.22;92659.25;5062547;28;20053;-77
2023/08/28 09:58:31;;;;;;;5.10;2.28;;;;;;;35.44;31.62;92663.06;5053139;28;20049;-78
2023/08/28 10:00:59;;;;;;;5.45;2.85;;;;;;;34.99;30.37;92652.69;5057359;28;20110;-77
2023/08/28 10:03:26;;;;;;;6.32;2.20;;;;;;;34.47;31.30;92655.59;5049520;28;20524;-77
2023/08/28 10:05:55;;;;;;;5.35;2.45;;;;;;;34.62;32.31;92633.19;5051944;28;20052;-79
2023/08/28 10:08:25;;;;;;;6.57;2.97;;;;;;;34.89;32.18;92650.78;5049274;28;20045;-77
2023/08/28 10:10:53;;;;;;;6.65;2.30;;;;;;;35.24;31.61;92649.31;5051132;28;20049;-77
2023/08/28 10:13:22;;;;;;;9.27;2.75;;;;;;;35.54;31.66;92644.75;5052052;28;20122;-77
2023/08/28 10:15:54;;;;;;;4.95;2.45;;;;;;;35.65;29.24;92645.53;5053767;28;20470;-77
2023/08/28 10:18:30;;;;;;;4.85;2.17;;;;;;;35.71;29.84;92638.63;5049170;28;20603;-77
2023/08/28 10:20:58;;;;;;;4.00;2.22;;;;;;;35.68;29.44;92634.06;5049442;28;20106;-77
2023/08/28 10:23:26;;;;;;;5.88;2.47;;;;;;;35.33;30.11;92624.91;5048849;28;20099;-77
2023/08/28 10:25:54;;;;;;;4.72;2.05;;;;;;;34.93;29.11;92622.19;5052274;28;20099;-76
2023/08/28 10:28:21;;;;;;;11.02;2.53;;;;;;;35.27;29.31;92603.16;5049712;28;20053;-77
2023/08/28 10:30:51;;;;;;;6.15;2.22;;;;;;;35.60;30.99;92613.06;5055119;28;20436;-77
2023/08/28 10:33:20;;;;;;;4.72;2.33;;;;;;;35.97;30.07;92609.94;5061021;28;20040;-77
2023/08/28 10:35:51;;;;;;;4.57;2.50;;;;;;;36.21;29.76;92615.63;5050655;28;20412;-77
2023/08/28 10:38:20;;;;;;;3.15;1.70;;;;;;;36.21;28.21;92596.13;5059108;28;20135;-77
2023/08/28 10:40:49;;;;;;;3.75;1.98;;;;;;;36.28;27.95;92609.47;5055603;28;20049;-77
2023/08/28 10:43:17;;;;;;;4.38;2.08;;;;;;;36.42;28.89;92605.97;5051039;28;20385;-77
2023/08/28 10:45:45;;;;;;;3.28;1.90;;;;;;;36.60;28.59;92594.44;5056532;28;20115;-76
2023/08/28 10:48:11;;;;;;;8.95;2.33;;;;;;;36.77;28.51;92598.94;5049643;28;20045;-77
2023/08/28 10:50:39;;;;;;;5.20;2.20;;;;;;;36.83;28.08;92596.59;5063692;28;20049;-76
2023/08/28 10:53:07;;;;;;;3.13;1.65;;;;;;;36.81;28.45;92585.53;5057757;28;20068;-76
2023/08/28 10:55:35;;;;;;;7.47;2.22;;;;;;;36.86;26.43;92584.34;5054910;28;20041;-77
2023/08/28 10:58:03;;;;;;;4.90;2.08;;;;;;;37.09;28.38;92586.47;5053599;28;20060;-78
2023/08/28 11:00:30;;;;;;;7.13;2.00;;;;;;;37.23;28.50;92580.25;5048757;28;20049;-77
2023/08/28 11:03:06;;;;;;;4.13;1.98;;;;;;;37.36;27.20;92582.44;5053147;28;20048;-78
2023/08/28 11:05:33;;;;;;;3.97;2.15;;;;;;;37.35;26.97;92587.06;5057297;28;20149;-77
2023/08/28 11:08:03;;;;;;;4.63;2.28;;;;;;;37.26;27.99;92576.78;5052969;28;20137;-78
2023/08/28 11:10:32;;;;;;;4.82;2.33;;;;;;;37.18;26.51;92567.31;5058229;28;20132;-77
2023/08/28 11:13:03;;;;;;;3.97;1.90;;;;;;;37.26;26.97;92568.00;5050527;28;20102;-77
2023/08/28 11:15:34;;;;;;;7.95;2.28;;;;;;;37.53;27.59;92559.34;5047965;28;20493;-77
2023/08/28 11:18:26;;;;;;;2.78;1.75;;;;;;;37.65;27.73;92572.25;5048556;28;20516;-77
2023/08/28 11:20:53;;;;;;;4.00;1.58;;;;;;;37.80;26.59;92559.44;5050820;28;20083;-77
2023/08/28 11:23:22;;;;;;;3.78;1.67;;;;;;;37.77;25.08;92549.53;5050802;28;20056;-77
2023/08/28 11:25:52;;;;;;;4.32;1.70;;;;;;;37.87;25.55;92533.72;5052588;28;20072;-77
2023/08/28 11:28:30;;;;;;;2.90;1.77;;;;;;;38.03;25.55;92538.53;5058196;28;20095;-78
2023/08/28 11:31:01;;;;;;;3.15;1.58;;;;;;;38.24;25.81;92550.94;5046229;28;20139;-77
2023/08/28 11:33:35;;;;;;;2.90;1.67;;;;;;;37.83;23.58;92515.78;5055440;28;20045;-79